Time;durP1;ratioP1;P1;durP2;ratioP2;P2;SDS_P1;SDS_P2;PMS_P1;PMS_P2;Temp;Humidity;BMP_temperature;BMP_pressure;BME280_temperature;BME280_humidity;BME280_pressure;Samples;Min_cycle;Max_cycle;Signal;HPM_P1;HPM_P2
2023/04/17 00:01:05;;;;;;;9.30;9.00;;;8.70;99.90;;;;;;5023909;28;20232;-79
2023/04/17 00:03:33;;;;;;;9.30;9.00;;;8.70;99.90;;;;;;5022578;28;20240;-80
2023/04/17 00:06:00;;;;;;;9.20;8.90;;;8.70;99.90;;;;;;5023392;28;20335;-80
2023/04/17 00:08:28;;;;;;;9.30;9.00;;;8.70;99.90;;;;;;5023635;28;20220;-80
2023/04/17 00:10:57;;;;;;;9.10;8.80;;;8.60;99.90;;;;;;5024475;28;20242;-80
2023/04/17 00:13:24;;;;;;;9.10;8.80;;;8.60;99.90;;;;;;5023304;28;20239;-80
2023/04/17 00:15:52;;;;;;;9.10;8.80;;;8.60;99.90;;;;;;5024594;28;20229;-80
2023/04/17 00:18:19;;;;;;;9.40;9.10;;;8.60;99.90;;;;;;5024822;28;20239;-80
2023/04/17 00:20:46;;;;;;;9.30;9.00;;;8.50;99.90;;;;;;5024415;28;20243;-80
2023/04/17 00:23:14;;;;;;;9.13;8.83;;;8.50;99.90;;;;;;5024114;28;20248;-80
2023/04/17 00:25:41;;;;;;;9.10;8.80;;;8.50;99.90;;;;;;5023222;28;20286;-80
2023/04/17 00:28:10;;;;;;;9.17;8.87;;;8.50;99.90;;;;;;5024201;28;20705;-80
2023/04/17 00:30:38;;;;;;;9.50;9.20;;;8.60;99.90;;;;;;5023473;28;20243;-80
2023/04/17 00:33:05;;;;;;;9.30;9.00;;;8.60;99.90;;;;;;5023958;28;20266;-80
2023/04/17 00:35:33;;;;;;;9.43;9.13;;;8.50;99.90;;;;;;5022690;28;20230;-80
2023/04/17 00:38:00;;;;;;;9.27;8.97;;;8.60;99.90;;;;;;5023284;28;20240;-80
2023/04/17 00:40:28;;;;;;;9.17;8.87;;;8.60;99.90;;;;;;5023852;28;20296;-80
2023/04/17 00:43:00;;;;;;;9.33;9.03;;;8.60;99.90;;;;;;5023436;28;20236;-80
2023/04/17 00:45:29;;;;;;;9.57;9.27;;;8.60;99.90;;;;;;5022614;28;20319;-80
2023/04/17 00:47:59;;;;;;;9.20;8.90;;;8.50;99.90;;;;;;5027951;28;20303;-79
2023/04/17 00:50:28;;;;;;;9.30;9.00;;;8.50;99.90;;;;;;5025770;28;20325;-80
2023/04/17 00:52:56;;;;;;;9.13;8.83;;;8.60;99.90;;;;;;5025109;28;20236;-80
2023/04/17 00:55:24;;;;;;;9.30;9.00;;;8.50;99.90;;;;;;5024998;28;20327;-80
2023/04/17 00:57:51;;;;;;;9.40;9.10;;;8.50;99.90;;;;;;5024474;28;20240;-80
2023/04/17 01:00:19;;;;;;;9.20;8.90;;;8.60;99.90;;;;;;5023574;28;20698;-80
2023/04/17 01:02:48;;;;;;;9.40;9.10;;;8.60;99.90;;;;;;5024059;28;20259;-80
2023/04/17 01:05:15;;;;;;;9.23;8.93;;;8.60;99.90;;;;;;5024108;28;20232;-80
2023/04/17 01:07:43;;;;;;;9.30;9.00;;;8.60;99.90;;;;;;5023092;28;20247;-80
2023/04/17 01:10:11;;;;;;;9.40;9.10;;;8.60;99.90;;;;;;5024138;28;20268;-80
2023/04/17 01:12:39;;;;;;;9.27;8.97;;;8.60;99.90;;;;;;5023914;28;20287;-80
2023/04/17 01:15:07;;;;;;;9.43;9.13;;;8.60;99.90;;;;;;5022531;28;20223;-80
2023/04/17 01:17:35;;;;;;;9.40;9.10;;;8.60;99.90;;;;;;5024194;28;20268;-80
2023/04/17 01:20:06;;;;;;;9.20;8.90;;;8.60;99.90;;;;;;5023213;28;20717;-79
2023/04/17 01:22:33;;;;;;;9.23;8.93;;;8.50;99.90;;;;;;5023439;28;20311;-80
2023/04/17 01:25:03;;;;;;;9.40;9.10;;;8.50;99.90;;;;;;5023312;28;20284;-80
2023/04/17 01:27:30;;;;;;;9.27;8.97;;;8.50;99.90;;;;;;5023738;28;20255;-80
2023/04/17 01:29:58;;;;;;;9.43;9.13;;;8.50;99.90;;;;;;5022793;28;20327;-80
2023/04/17 01:32:25;;;;;;;9.53;9.23;;;8.60;99.90;;;;;;5023769;28;20246;-80
2023/04/17 01:34:53;;;;;;;9.40;9.10;;;8.50;99.90;;;;;;5023642;28;20228;-80
2023/04/17 01:37:20;;;;;;;9.50;9.20;;;8.50;99.90;;;;;;5022990;28;20240;-79
2023/04/17 01:39:48;;;;;;;9.30;9.00;;;8.50;99.90;;;;;;5023839;28;20232;-80
2023/04/17 01:42:17;;;;;;;9.00;8.70;;;8.50;99.90;;;;;;5024911;28;20242;-80
2023/04/17 01:44:44;;;;;;;9.27;8.97;;;8.50;99.90;;;;;;5024001;28;20238;-80
2023/04/17 01:47:12;;;;;;;9.10;8.80;;;8.50;99.90;;;;;;5030438;28;20308;-80
2023/04/17 01:49:39;;;;;;;9.13;8.83;;;8.50;99.90;;;;;;5027939;28;20327;-80
2023/04/17 01:52:07;;;;;;;9.03;8.73;;;8.50;99.90;;;;;;5023899;28;20291;-80
2023/04/17 01:54:34;;;;;;;9.10;8.80;;;8.60;99.90;;;;;;5023387;28;20246;-80
2023/04/17 01:57:02;;;;;;;9.47;9.17;;;8.50;99.90;;;;;;5023774;28;20240;-80
2023/04/17 01:59:31;;;;;;;9.40;9.10;;;8.50;99.90;;;;;;5023063;28;20246;-80
2023/04/17 02:01:58;;;;;;;9.37;9.07;;;8.50;99.90;;;;;;5022993;28;20246;-80
2023/04/17 02:04:26;;;;;;;9.53;9.23;;;8.40;99.90;;;;;;5022730;28;20315;-79
2023/04/17 02:06:53;;;;;;;9.37;9.07;;;8.40;99.90;;;;;;5022163;28;20236;-80
2023/04/17 02:09:20;;;;;;;9.30;9.00;;;8.40;99.90;;;;;;5022198;28;20238;-80
2023/04/17 02:11:48;;;;;;;9.13;8.83;;;8.40;99.90;;;;;;5022364;28;20240;-80
2023/04/17 02:14:18;;;;;;;9.37;9.07;;;8.40;99.90;;;;;;5022895;28;20232;-80
2023/04/17 02:16:47;;;;;;;9.40;9.10;;;8.40;99.90;;;;;;5021317;28;20247;-80
2023/04/17 02:19:14;;;;;;;9.23;8.93;;;8.50;99.90;;;;;;5022650;28;20235;-80
2023/04/17 02:21:42;;;;;;;9.00;8.70;;;8.40;99.90;;;;;;5022991;28;20263;-80
2023/04/17 02:24:09;;;;;;;9.20;8.90;;;8.40;99.90;;;;;;5022027;28;20224;-79
2023/04/17 02:26:37;;;;;;;9.30;9.00;;;8.40;99.90;;;;;;5028230;28;20242;-80
2023/04/17 02:29:04;;;;;;;9.27;8.97;;;8.30;99.90;;;;;;5028776;28;20293;-79
2023/04/17 02:31:32;;;;;;;9.40;9.10;;;8.40;99.90;;;;;;5029105;28;20298;-80
2023/04/17 02:34:01;;;;;;;9.23;8.93;;;8.40;99.90;;;;;;5029863;28;20258;-80
2023/04/17 02:36:28;;;;;;;9.37;9.07;;;8.30;99.90;;;;;;5036789;28;20247;-80
2023/04/17 02:38:55;;;;;;;9.07;8.77;;;8.30;99.90;;;;;;5030787;28;20258;-80
2023/04/17 02:41:23;;;;;;;9.27;8.97;;;8.30;99.90;;;;;;5029682;28;20230;-80
2023/04/17 02:43:50;;;;;;;9.17;8.87;;;8.30;99.90;;;;;;5029667;28;20281;-80
2023/04/17 02:46:18;;;;;;;9.10;8.80;;;8.30;99.90;;;;;;5029157;28;20243;-79
2023/04/17 02:48:45;;;;;;;9.10;8.80;;;8.30;99.90;;;;;;5035526;28;20232;-79
2023/04/17 02:51:14;;;;;;;9.20;8.90;;;8.30;99.90;;;;;;5043723;28;20224;-79
2023/04/17 02:53:41;;;;;;;8.93;8.63;;;8.30;99.90;;;;;;5041749;28;20275;-79
2023/04/17 02:56:09;;;;;;;9.10;8.80;;;8.30;99.90;;;;;;5040952;28;20295;-80
2023/04/17 02:58:36;;;;;;;9.20;8.90;;;8.30;99.90;;;;;;5042553;28;20227;-79
2023/04/17 03:01:04;;;;;;;9.17;8.87;;;8.30;99.90;;;;;;5044283;28;20238;-79
2023/04/17 03:03:33;;;;;;;9.40;9.10;;;8.30;99.90;;;;;;5044552;28;20295;-79
2023/04/17 03:06:01;;;;;;;9.27;8.97;;;8.30;99.90;;;;;;5041878;28;20335;-80
2023/04/17 03:08:34;;;;;;;9.30;9.00;;;8.30;99.90;;;;;;5042876;28;20296;-79
2023/04/17 03:11:02;;;;;;;9.40;9.10;;;8.30;99.90;;;;;;5044042;28;20243;-79
2023/04/17 03:13:30;;;;;;;9.10;8.80;;;8.30;99.90;;;;;;5043095;28;20231;-79
2023/04/17 03:15:57;;;;;;;9.20;8.90;;;8.30;99.90;;;;;;5042628;28;20222;-80
2023/04/17 03:18:25;;;;;;;9.10;8.80;;;8.30;99.90;;;;;;5044155;28;20235;-79
2023/04/17 03:20:52;;;;;;;9.10;8.80;;;8.30;99.90;;;;;;5044549;28;20220;-79
2023/04/17 03:23:20;;;;;;;9.00;8.70;;;8.30;99.90;;;;;;5044672;28;20212;-79
2023/04/17 03:25:49;;;;;;;9.17;8.87;;;8.20;99.90;;;;;;5043651;28;20331;-79
2023/04/17 03:28:18;;;;;;;9.00;8.70;;;8.20;99.90;;;;;;5043564;28;20243;-79
2023/04/17 03:30:46;;;;;;;9.03;8.73;;;8.30;99.90;;;;;;5042258;28;20241;-80
2023/04/17 03:33:13;;;;;;;9.17;8.87;;;8.30;99.90;;;;;;5043696;28;20227;-80
2023/04/17 03:35:41;;;;;;;9.00;8.70;;;8.20;99.90;;;;;;5043611;28;20236;-79
2023/04/17 03:38:08;;;;;;;8.80;8.50;;;8.30;99.90;;;;;;5033578;28;20236;-80
2023/04/17 03:40:36;;;;;;;9.00;8.70;;;8.30;99.90;;;;;;5039662;28;20240;-79
2023/04/17 03:43:05;;;;;;;9.00;8.70;;;8.30;99.90;;;;;;5040380;28;20319;-79
2023/04/17 03:45:33;;;;;;;9.10;8.80;;;8.30;99.90;;;;;;5039781;28;20228;-80
2023/04/17 03:48:00;;;;;;;9.13;8.83;;;8.40;99.90;;;;;;5038606;28;20312;-79
2023/04/17 03:50:28;;;;;;;9.20;8.90;;;8.40;99.90;;;;;;5034302;28;20319;-80
2023/04/17 03:52:55;;;;;;;9.10;8.80;;;8.30;99.90;;;;;;5025571;28;20327;-80
2023/04/17 03:55:23;;;;;;;8.93;8.63;;;8.30;99.90;;;;;;5024586;28;20296;-80
2023/04/17 03:57:51;;;;;;;9.20;8.90;;;8.30;99.90;;;;;;5023768;28;20299;-80
2023/04/17 04:00:21;;;;;;;9.20;8.90;;;8.30;99.90;;;;;;5027770;28;20227;-80
2023/04/17 04:02:48;;;;;;;9.50;9.20;;;8.40;99.90;;;;;;5034383;28;20319;-79
2023/04/17 04:05:16;;;;;;;9.20;8.90;;;8.30;99.90;;;;;;5026350;28;20238;-79
2023/04/17 04:07:43;;;;;;;9.33;9.03;;;8.30;99.90;;;;;;5025309;28;20319;-80
2023/04/17 04:10:11;;;;;;;9.30;9.00;;;8.30;99.90;;;;;;5025116;28;20243;-80
2023/04/17 04:12:39;;;;;;;9.30;9.00;;;8.30;99.90;;;;;;5024668;28;20233;-80
2023/04/17 04:15:08;;;;;;;9.47;9.17;;;8.20;99.90;;;;;;5024793;28;20236;-79
2023/04/17 04:17:37;;;;;;;9.60;9.30;;;8.20;99.90;;;;;;5023886;28;20302;-80
2023/04/17 04:20:07;;;;;;;9.30;9.00;;;8.20;99.90;;;;;;5024198;28;20236;-80
2023/04/17 04:22:35;;;;;;;9.70;9.40;;;8.30;99.90;;;;;;5023839;28;20233;-80
2023/04/17 04:25:02;;;;;;;9.70;9.40;;;8.30;99.90;;;;;;5026669;28;20243;-80
2023/04/17 04:27:31;;;;;;;9.70;9.40;;;8.30;99.90;;;;;;5023856;28;20240;-80
2023/04/17 04:30:00;;;;;;;9.70;9.40;;;8.30;99.90;;;;;;5025004;28;20240;-80
2023/04/17 04:32:28;;;;;;;9.60;9.30;;;8.30;99.90;;;;;;5024643;28;20224;-80
2023/04/17 04:35:00;;;;;;;9.30;9.00;;;8.30;99.90;;;;;;5025613;28;20300;-80
2023/04/17 04:37:30;;;;;;;9.17;8.87;;;8.30;99.90;;;;;;5023485;28;20268;-80
2023/04/17 04:40:01;;;;;;;9.17;8.87;;;8.30;99.90;;;;;;5023615;28;20232;-80
2023/04/17 04:42:28;;;;;;;9.40;9.10;;;8.30;99.90;;;;;;5023722;28;20235;-80
2023/04/17 04:44:56;;;;;;;9.17;8.87;;;8.30;99.90;;;;;;5023797;28;20236;-80
2023/04/17 04:47:23;;;;;;;9.13;8.83;;;8.30;99.90;;;;;;5023983;28;20250;-80
2023/04/17 04:49:51;;;;;;;9.30;9.00;;;8.40;99.90;;;;;;5021651;28;20267;-79
2023/04/17 04:52:20;;;;;;;9.07;8.77;;;8.30;99.90;;;;;;5023664;28;20267;-80
2023/04/17 04:54:47;;;;;;;9.30;9.00;;;8.30;99.90;;;;;;5022432;28;20319;-80
2023/04/17 04:57:15;;;;;;;9.30;9.00;;;8.40;99.90;;;;;;5022818;28;20240;-80
2023/04/17 04:59:42;;;;;;;9.37;9.07;;;8.40;99.90;;;;;;5022940;28;20334;-80
2023/04/17 05:02:10;;;;;;;9.37;9.07;;;8.50;99.90;;;;;;5023197;28;20239;-80
2023/04/17 05:04:37;;;;;;;9.30;9.00;;;8.50;99.90;;;;;;5023423;28;20753;-80
2023/04/17 05:07:06;;;;;;;9.50;9.20;;;8.40;99.90;;;;;;5024340;28;20260;-80
2023/04/17 05:09:35;;;;;;;9.40;9.10;;;8.50;99.90;;;;;;5023396;28;20228;-80
2023/04/17 05:12:02;;;;;;;9.23;8.93;;;8.50;99.90;;;;;;5022997;28;20228;-80
2023/04/17 05:14:30;;;;;;;9.10;8.80;;;8.50;99.90;;;;;;5022706;28;20303;-80
2023/04/17 05:16:57;;;;;;;9.10;8.80;;;8.50;99.90;;;;;;5023480;28;20327;-80
2023/04/17 05:19:25;;;;;;;9.00;8.70;;;8.50;99.90;;;;;;5023216;28;20236;-80
2023/04/17 05:21:52;;;;;;;9.30;9.00;;;8.60;99.90;;;;;;5026435;28;20319;-80
2023/04/17 05:24:20;;;;;;;9.10;8.80;;;8.60;99.90;;;;;;5023967;28;20228;-80
2023/04/17 05:26:49;;;;;;;9.20;8.90;;;8.60;99.90;;;;;;5028426;28;20246;-80
2023/04/17 05:29:16;;;;;;;9.17;8.87;;;8.60;99.90;;;;;;5032386;28;20232;-80
2023/04/17 05:31:44;;;;;;;9.10;8.80;;;8.70;99.90;;;;;;5026915;28;20354;-80
2023/04/17 05:34:11;;;;;;;9.37;9.07;;;8.70;99.90;;;;;;5026181;28;20295;-80
2023/04/17 05:36:39;;;;;;;9.33;9.03;;;8.70;99.90;;;;;;5025654;28;20303;-79
2023/04/17 05:39:06;;;;;;;9.60;9.30;;;8.70;99.90;;;;;;5025353;28;20296;-80
2023/04/17 05:41:34;;;;;;;9.60;9.30;;;8.80;99.90;;;;;;5025376;28;20228;-80
2023/04/17 05:44:03;;;;;;;9.40;9.10;;;8.80;99.90;;;;;;5024493;28;20251;-80
2023/04/17 05:52:51;;;;;;;9.50;9.20;;;8.80;99.90;;;;;;4994396;28;20196;-85
2023/04/17 06:12:54;;;;;;;9.27;8.97;;;8.80;99.90;;;;;;4977361;28;20238;-84
2023/04/17 06:19:54;;;;;;;9.40;9.10;;;8.90;99.90;;;;;;4903123;29;20227;-84
2023/04/17 06:23:00;;;;;;;9.30;9.00;;;8.90;99.90;;;;;;4961192;28;20275;-84
2023/04/17 06:36:16;;;;;;;9.50;9.20;;;9.00;99.90;;;;;;4957592;28;20233;-84
2023/04/17 06:38:59;;;;;;;9.70;9.40;;;9.10;99.90;;;;;;4956658;28;20238;-84
2023/04/17 06:42:26;;;;;;;9.70;9.40;;;9.10;99.90;;;;;;4957470;28;20237;-85
2023/04/17 06:48:39;;;;;;;9.80;9.50;;;9.20;99.90;;;;;;4979649;28;20249;-85
2023/04/17 06:52:08;;;;;;;9.80;9.50;;;9.30;99.90;;;;;;4901873;29;20331;-85
2023/04/17 06:58:41;;;;;;;9.70;9.40;;;9.40;99.90;;;;;;4959117;28;20237;-85
2023/04/17 07:04:28;;;;;;;9.40;9.10;;;9.40;99.90;;;;;;4976102;28;20237;-85
2023/04/17 07:07:57;;;;;;;9.30;9.00;;;9.40;99.90;;;;;;4979792;28;20280;-85
2023/04/17 07:21:16;;;;;;;9.30;9.00;;;9.70;99.90;;;;;;4942916;29;20227;-85
2023/04/17 07:24:18;;;;;;;9.30;9.00;;;9.70;99.90;;;;;;4949643;28;20766;-85
2023/04/17 07:27:03;;;;;;;9.30;9.00;;;9.70;99.90;;;;;;4984010;28;20260;-85
2023/04/17 07:32:58;;;;;;;9.30;9.00;;;9.80;99.90;;;;;;4977151;28;20293;-85
2023/04/17 07:35:41;;;;;;;9.10;8.80;;;9.70;99.90;;;;;;4982770;28;20233;-85
2023/04/17 07:38:51;;;;;;;8.90;8.70;;;9.70;99.90;;;;;;4983643;28;20237;-85
2023/04/17 07:42:23;;;;;;;8.90;8.70;;;9.90;99.90;;;;;;4983514;28;20270;-85
2023/04/17 07:45:28;;;;;;;8.90;8.70;;;9.90;99.90;;;;;;4968725;28;20233;-85
2023/04/17 07:55:05;;;;;;;9.20;8.90;;;10.10;99.90;;;;;;4981144;28;20257;-85
2023/04/17 07:58:15;;;;;;;9.30;9.00;;;10.30;99.90;;;;;;4982522;28;20332;-85
2023/04/17 08:01:09;;;;;;;9.10;8.80;;;10.40;99.90;;;;;;4974249;28;20316;-85
2023/04/17 08:07:59;;;;;;;9.50;9.20;;;10.80;99.90;;;;;;4975237;28;20290;-85
2023/04/17 08:10:45;;;;;;;9.83;9.53;;;10.90;99.90;;;;;;4992314;28;20257;-86
2023/04/17 08:20:26;;;;;;;9.50;9.20;;;10.90;99.90;;;;;;4980787;28;20247;-85
2023/04/17 08:24:03;;;;;;;;;;;;;;;;;;;;;
2023/04/17 08:30:45;;;;;;;;;;;;;;;;;;;;;
2023/04/17 08:40:51;;;;;;;;;;;;;;;;;;;;;
2023/04/17 08:44:14;;;;;;;9.30;9.00;;;10.90;99.90;;;;;;4980246;28;20225;-85
2023/04/17 08:47:12;;;;;;;9.40;9.10;;;10.90;99.90;;;;;;4979857;28;20234;-85
2023/04/17 08:53:15;;;;;;;9.80;9.50;;;10.90;99.90;;;;;;4981614;28;20249;-85
2023/04/17 09:00:29;;;;;;;9.60;9.30;;;10.90;99.90;;;;;;4901652;29;20232;-85
2023/04/17 09:11:07;;;;;;;9.40;9.10;;;11.10;99.90;;;;;;4977969;28;20233;-85
2023/04/17 09:14:29;;;;;;;9.30;9.00;;;11.30;99.90;;;;;;4938932;29;20246;-85
2023/04/17 09:21:12;;;;;;;9.30;9.00;;;11.50;99.90;;;;;;4978970;28;20239;-85
2023/04/17 09:24:44;;;;;;;9.00;8.80;;;11.50;99.90;;;;;;4999184;28;20230;-85
2023/04/17 09:31:15;;;;;;;9.90;9.60;;;11.50;99.90;;;;;;4976116;28;20233;-85
2023/04/17 09:34:12;;;;;;;9.60;9.30;;;11.50;99.90;;;;;;4984577;28;20240;-85
2023/04/17 09:37:58;;;;;;;9.80;9.50;;;11.60;99.90;;;;;;4985423;28;20230;-85
2023/04/17 09:41:03;;;;;;;9.63;9.33;;;11.70;99.90;;;;;;4975807;28;20264;-85
2023/04/17 09:44:12;;;;;;;9.67;9.37;;;11.80;99.90;;;;;;4985050;28;20247;-85
2023/04/17 09:51:20;;;;;;;10.00;9.70;;;12.00;99.90;;;;;;4913750;28;20233;-85
2023/04/17 09:57:28;;;;;;;9.60;9.30;;;12.00;99.90;;;;;;4984938;28;20233;-85
2023/04/17 10:07:59;;;;;;;9.90;9.60;;;11.80;99.90;;;;;;4975698;28;20232;-85
2023/04/17 10:22:56;;;;;;;9.63;9.33;;;11.90;99.90;;;;;;4938994;29;20235;-84
2023/04/17 10:37:26;;;;;;;10.13;9.83;;;12.90;99.90;;;;;;4904690;29;21107;-85
2023/04/17 10:47:59;;;;;;;;;;;;;;;;;;;;;
2023/04/17 10:51:29;;;;;;;9.80;9.50;;;12.80;99.90;;;;;;4984991;28;20228;-85
2023/04/17 11:48:38;;;;;;;10.00;9.70;;;13.10;99.90;;;;;;5020008;22;20292;-79
2023/04/17 11:51:08;;;;;;;9.90;9.60;;;13.10;99.90;;;;;;5024521;28;20239;-79
2023/04/17 11:53:36;;;;;;;9.90;9.60;;;13.10;99.90;;;;;;5023578;28;20218;-79
2023/04/17 11:56:15;;;;;;;9.80;9.50;;;13.20;99.90;;;;;;5023142;28;20247;-79
2023/04/17 11:58:50;;;;;;;9.90;9.60;;;13.20;99.90;;;;;;5022141;28;20298;-79
2023/04/17 12:01:20;;;;;;;10.20;9.90;;;13.10;99.90;;;;;;5023534;28;20231;-79
2023/04/17 12:03:48;;;;;;;10.20;9.90;;;13.00;99.90;;;;;;5023887;28;20312;-80
2023/04/17 12:06:17;;;;;;;10.40;10.10;;;13.20;99.90;;;;;;5024074;28;20228;-79
2023/04/17 12:08:49;;;;;;;10.30;10.00;;;13.40;99.90;;;;;;5022524;28;20236;-79
2023/04/17 12:11:23;;;;;;;10.47;10.17;;;13.60;99.90;;;;;;5024533;28;20224;-79
2023/04/17 12:13:51;;;;;;;10.40;10.10;;;13.90;99.90;;;;;;5023531;28;20239;-79
2023/04/17 12:16:18;;;;;;;10.60;10.30;;;14.50;99.90;;;;;;5022515;28;20236;-79
2023/04/17 12:18:46;;;;;;;10.27;9.98;;;15.20;99.90;;;;;;5023639;28;20234;-80
2023/04/17 12:21:14;;;;;;;10.30;10.00;;;15.20;99.90;;;;;;5023850;28;20236;-79
2023/04/17 12:23:43;;;;;;;10.00;9.70;;;14.90;99.90;;;;;;5023936;28;20287;-80
2023/04/17 12:26:10;;;;;;;10.40;10.10;;;14.80;99.90;;;;;;5023751;28;20240;-80
2023/04/17 12:28:38;;;;;;;10.00;9.70;;;14.50;99.90;;;;;;5023240;28;20331;-79
2023/04/17 12:31:06;;;;;;;10.10;9.80;;;14.30;99.90;;;;;;5022948;28;20318;-80
2023/04/17 12:33:34;;;;;;;10.10;9.80;;;14.10;99.90;;;;;;5023650;28;20236;-80
2023/04/17 12:36:04;;;;;;;10.13;9.83;;;13.70;99.90;;;;;;5023231;28;20236;-79
2023/04/17 12:38:32;;;;;;;10.10;9.80;;;13.30;99.90;;;;;;5023047;28;20244;-80
2023/04/17 12:41:00;;;;;;;10.17;9.87;;;13.30;99.90;;;;;;5022969;28;20217;-80
2023/04/17 12:43:28;;;;;;;10.23;9.93;;;13.20;99.90;;;;;;5022530;28;20258;-79
2023/04/17 12:45:57;;;;;;;9.90;9.60;;;13.30;99.90;;;;;;5024305;28;20267;-80
2023/04/17 12:48:24;;;;;;;9.90;9.60;;;13.30;99.90;;;;;;5022261;28;20272;-80
2023/04/17 12:50:53;;;;;;;9.90;9.60;;;13.50;99.90;;;;;;5024318;28;20283;-79
2023/04/17 12:53:20;;;;;;;9.70;9.40;;;13.60;99.90;;;;;;5023313;28;20295;-79
2023/04/17 12:55:47;;;;;;;10.30;10.00;;;13.60;99.90;;;;;;5023752;28;20235;-79
2023/04/17 12:58:16;;;;;;;9.50;9.20;;;13.50;99.90;;;;;;5026480;28;20240;-79
2023/04/17 13:00:44;;;;;;;9.97;9.67;;;13.60;99.90;;;;;;5033969;28;20339;-79
2023/04/17 13:03:11;;;;;;;10.00;9.70;;;13.50;99.90;;;;;;5026313;28;20232;-79
2023/04/17 13:05:39;;;;;;;9.90;9.60;;;13.20;99.90;;;;;;5025816;28;20236;-79
2023/04/17 13:08:11;;;;;;;9.53;9.23;;;13.10;99.90;;;;;;5024527;28;20236;-79
2023/04/17 13:10:38;;;;;;;9.70;9.40;;;13.00;99.90;;;;;;5023038;28;20263;-79
2023/04/17 13:13:06;;;;;;;10.00;9.70;;;13.00;99.90;;;;;;5025621;28;20288;-79
2023/04/17 13:15:35;;;;;;;9.80;9.50;;;13.00;99.90;;;;;;5027016;28;20267;-79
2023/04/17 13:18:03;;;;;;;10.00;9.70;;;13.10;99.90;;;;;;5023498;28;20244;-79
2023/04/17 13:20:30;;;;;;;9.50;9.20;;;13.50;99.90;;;;;;5024970;28;20270;-79
2023/04/17 13:22:58;;;;;;;9.77;9.47;;;13.90;99.90;;;;;;5025468;28;20243;-79
2023/04/17 13:25:25;;;;;;;10.10;9.80;;;14.00;99.90;;;;;;5025085;28;20291;-79
2023/04/17 13:27:54;;;;;;;10.20;9.90;;;13.90;99.90;;;;;;5026852;28;20303;-80
2023/04/17 13:30:21;;;;;;;10.07;9.77;;;13.90;99.90;;;;;;5026536;28;20271;-79
2023/04/17 13:32:50;;;;;;;9.80;9.50;;;13.80;99.90;;;;;;5026416;28;20706;-79
2023/04/17 13:35:18;;;;;;;9.40;9.10;;;13.70;99.90;;;;;;5026097;28;20228;-79
2023/04/17 13:37:45;;;;;;;9.70;9.40;;;13.60;99.90;;;;;;5027126;28;20232;-81
2023/04/17 13:40:14;;;;;;;9.53;9.23;;;13.50;99.90;;;;;;5027457;28;20235;-79
2023/04/17 13:42:41;;;;;;;10.03;9.73;;;13.70;99.90;;;;;;5025302;28;20216;-79
2023/04/17 13:45:10;;;;;;;9.90;9.60;;;13.90;99.90;;;;;;5027116;28;20236;-79
2023/04/17 13:47:37;;;;;;;10.00;9.70;;;13.90;99.90;;;;;;5031841;28;20281;-79
2023/04/17 13:50:08;;;;;;;10.10;9.80;;;14.50;99.90;;;;;;5035195;28;20300;-79
2023/04/17 13:52:36;;;;;;;10.07;9.77;;;15.10;99.90;;;;;;5035179;28;20275;-79
2023/04/17 13:55:06;;;;;;;10.40;10.10;;;15.70;99.90;;;;;;5036435;28;20236;-79
2023/04/17 13:57:34;;;;;;;10.20;9.90;;;15.90;99.90;;;;;;5037022;28;20296;-79
2023/04/17 14:00:02;;;;;;;9.60;9.30;;;15.50;99.90;;;;;;5035483;28;20232;-79
2023/04/17 14:02:30;;;;;;;9.63;9.32;;;15.20;99.90;;;;;;5029130;28;20295;-79
2023/04/17 14:04:57;;;;;;;10.00;9.70;;;14.80;99.90;;;;;;5028528;28;20243;-79
2023/04/17 14:07:27;;;;;;;9.93;9.63;;;14.50;99.90;;;;;;5036271;28;20244;-79
2023/04/17 14:09:57;;;;;;;10.00;9.70;;;14.50;99.90;;;;;;5037109;28;20223;-79
2023/04/17 14:12:25;;;;;;;9.98;9.68;;;14.30;99.90;;;;;;5035532;28;20226;-78
2023/04/17 14:14:52;;;;;;;9.80;9.50;;;14.10;99.90;;;;;;5035608;28;20256;-78
2023/04/17 14:17:20;;;;;;;10.00;9.70;;;14.10;99.90;;;;;;5034724;28;20228;-77
2023/04/17 14:19:47;;;;;;;10.13;9.83;;;14.10;99.90;;;;;;5034369;28;20255;-79
2023/04/17 14:22:14;;;;;;;10.40;10.10;;;14.20;99.90;;;;;;5032597;28;20220;-78
2023/04/17 14:24:43;;;;;;;10.48;10.18;;;14.60;99.90;;;;;;5034553;28;20239;-78
2023/04/17 14:27:11;;;;;;;10.03;9.73;;;14.90;99.90;;;;;;5033081;28;20311;-79
2023/04/17 14:29:38;;;;;;;10.10;9.80;;;14.90;99.90;;;;;;5023272;28;20323;-78
2023/04/17 14:32:06;;;;;;;9.80;9.50;;;15.10;99.90;;;;;;5021660;28;20228;-79
2023/04/17 14:34:33;;;;;;;9.95;9.65;;;15.40;99.90;;;;;;5022149;28;20232;-79
2023/04/17 14:37:01;;;;;;;10.20;9.90;;;16.10;99.90;;;;;;5021422;28;20327;-79
2023/04/17 14:39:28;;;;;;;10.35;10.05;;;16.30;99.90;;;;;;5021076;28;20246;-79
2023/04/17 14:41:57;;;;;;;10.35;10.05;;;16.20;99.90;;;;;;5021158;28;20236;-81
2023/04/17 14:44:25;;;;;;;10.70;10.40;;;16.20;99.90;;;;;;5021601;28;20230;-79
2023/04/17 14:46:52;;;;;;;10.30;10.00;;;15.90;99.90;;;;;;5021797;28;20238;-79
2023/04/17 14:49:20;;;;;;;10.48;10.18;;;15.50;99.90;;;;;;5021117;28;20243;-79
2023/04/17 14:51:47;;;;;;;10.60;10.30;;;15.50;99.90;;;;;;5022077;28;20228;-79
2023/04/17 14:54:14;;;;;;;10.45;10.15;;;15.50;99.90;;;;;;5021608;28;20239;-78
2023/04/17 14:56:42;;;;;;;10.50;10.20;;;15.40;99.90;;;;;;5021129;28;20244;-79
2023/04/17 14:59:11;;;;;;;10.38;10.07;;;15.40;99.90;;;;;;5022157;28;20247;-79
2023/04/17 15:01:38;;;;;;;10.20;9.90;;;14.90;99.90;;;;;;5022010;28;21013;-79
2023/04/17 15:04:06;;;;;;;10.40;10.10;;;14.70;99.90;;;;;;5020668;28;20286;-79
2023/04/17 15:06:33;;;;;;;10.35;10.05;;;14.80;99.90;;;;;;5023527;28;20274;-79
2023/04/17 15:09:01;;;;;;;10.00;9.70;;;14.90;99.90;;;;;;5022928;28;20267;-79
2023/04/17 15:11:28;;;;;;;10.30;10.00;;;14.90;99.90;;;;;;5022582;28;20236;-79
2023/04/17 15:13:56;;;;;;;9.88;9.57;;;14.90;99.90;;;;;;5027780;28;20238;-78
2023/04/17 15:16:25;;;;;;;9.95;9.65;;;15.20;99.90;;;;;;5029671;28;20247;-79
2023/04/17 15:18:52;;;;;;;9.98;9.68;;;15.50;99.90;;;;;;5021995;28;20300;-79
2023/04/17 15:21:20;;;;;;;10.40;10.10;;;15.70;99.90;;;;;;5022527;28;20288;-79
2023/04/17 15:23:47;;;;;;;10.50;10.20;;;16.10;99.90;;;;;;5021818;28;20263;-80
2023/04/17 15:26:15;;;;;;;10.20;9.90;;;16.50;99.90;;;;;;5020647;28;20236;-79
2023/04/17 15:28:43;;;;;;;9.85;9.55;;;16.40;99.90;;;;;;5020889;28;20323;-79
2023/04/17 15:31:10;;;;;;;10.00;9.70;;;16.30;99.90;;;;;;5021123;28;20231;-79
2023/04/17 15:33:39;;;;;;;9.98;9.68;;;16.20;99.90;;;;;;5022204;28;20268;-80
2023/04/17 15:36:07;;;;;;;10.00;9.70;;;16.30;99.90;;;;;;5024929;28;20331;-79
2023/04/17 15:38:34;;;;;;;10.15;9.85;;;16.30;99.90;;;;;;5022476;28;20299;-79
2023/04/17 15:41:02;;;;;;;10.50;10.20;;;16.30;99.90;;;;;;5022384;28;20303;-79
2023/04/17 15:43:30;;;;;;;10.50;10.20;;;16.30;99.90;;;;;;5023454;28;20228;-79
2023/04/17 15:45:58;;;;;;;10.38;10.07;;;16.10;99.90;;;;;;5023489;28;20238;-79
2023/04/17 15:48:26;;;;;;;10.40;10.10;;;16.00;99.90;;;;;;5021872;28;20240;-79
2023/04/17 15:50:55;;;;;;;10.20;9.90;;;15.90;99.90;;;;;;5022102;28;20331;-79
2023/04/17 15:53:22;;;;;;;10.13;9.82;;;15.80;99.90;;;;;;5022405;28;20300;-79
2023/04/17 15:55:50;;;;;;;10.20;9.90;;;15.50;99.90;;;;;;5022866;28;20272;-80
2023/04/17 15:58:18;;;;;;;10.20;9.90;;;15.20;99.90;;;;;;5021510;28;20248;-80
2023/04/17 16:00:45;;;;;;;10.27;9.97;;;14.20;99.90;;;;;;5022449;28;20221;-79
2023/04/17 16:03:13;;;;;;;10.23;9.93;;;13.60;99.90;;;;;;5021738;28;20242;-79
2023/04/17 16:05:40;;;;;;;10.33;10.03;;;13.20;99.90;;;;;;5021549;28;20323;-79
2023/04/17 16:08:09;;;;;;;10.50;10.20;;;13.40;99.90;;;;;;5020904;28;20232;-79
2023/04/17 16:10:37;;;;;;;10.40;10.10;;;13.90;99.90;;;;;;5021669;28;20240;-80
2023/04/17 16:13:04;;;;;;;10.13;9.83;;;14.30;99.90;;;;;;5021239;28;20246;-79
2023/04/17 16:15:32;;;;;;;10.30;10.00;;;14.00;99.90;;;;;;5021654;28;20234;-79
2023/04/17 16:17:59;;;;;;;10.10;9.80;;;13.70;99.90;;;;;;5030663;28;20331;-79
2023/04/17 16:20:27;;;;;;;10.00;9.70;;;13.10;99.90;;;;;;5027043;28;20284;-79
2023/04/17 16:22:54;;;;;;;9.90;9.60;;;12.90;99.90;;;;;;5026033;28;20232;-79
2023/04/17 16:25:24;;;;;;;10.10;9.80;;;12.80;99.90;;;;;;5024591;28;20296;-79
2023/04/17 16:27:51;;;;;;;10.20;9.90;;;13.10;99.90;;;;;;5024692;28;20228;-79
2023/04/17 16:30:19;;;;;;;10.30;10.00;;;13.50;99.90;;;;;;5024568;28;20223;-79
2023/04/17 16:32:48;;;;;;;10.05;9.75;;;13.90;99.90;;;;;;5024809;28;20236;-79
2023/04/17 16:35:16;;;;;;;10.10;9.80;;;13.80;99.90;;;;;;5024476;28;20323;-80
2023/04/17 16:37:43;;;;;;;9.90;9.60;;;13.50;99.90;;;;;;5023215;28;20326;-79
2023/04/17 16:40:12;;;;;;;9.73;9.43;;;13.30;99.90;;;;;;5024914;28;20238;-79
2023/04/17 16:42:41;;;;;;;9.97;9.67;;;13.10;99.90;;;;;;5024561;28;20299;-80
2023/04/17 16:45:09;;;;;;;9.80;9.50;;;13.00;99.90;;;;;;5024444;28;20251;-79
2023/04/17 16:47:37;;;;;;;9.70;9.40;;;12.80;99.90;;;;;;5023739;28;20318;-80
2023/04/17 16:50:06;;;;;;;9.83;9.53;;;12.70;99.90;;;;;;5024008;28;20212;-80
2023/04/17 16:52:34;;;;;;;9.90;9.60;;;12.20;99.90;;;;;;5024819;28;20242;-79
2023/04/17 16:55:01;;;;;;;9.90;9.60;;;11.90;99.90;;;;;;5024617;28;20225;-80
2023/04/17 16:57:29;;;;;;;9.50;9.20;;;11.80;99.90;;;;;;5023087;28;20255;-80